sensor_id;sensor_type;location;lat;lon;timestamp;P1;durP1;ratioP1;P2;durP2;ratioP2
12218;SDS011;6172;42.646;23.344;2024-01-30T00:01:16;8.50;;;3.77;;
12218;SDS011;6172;42.646;23.344;2024-01-30T00:03:44;6.33;;;3.70;;
12218;SDS011;6172;42.646;23.344;2024-01-30T00:06:11;5.20;;;3.30;;
12218;SDS011;6172;42.646;23.344;2024-01-30T00:08:40;7.87;;;3.43;;
12218;SDS011;6172;42.646;23.344;2024-01-30T00:11:09;5.03;;;3.10;;
12218;SDS011;6172;42.646;23.344;2024-01-30T00:13:36;5.00;;;3.10;;
12218;SDS011;6172;42.646;23.344;2024-01-30T00:16:03;6.00;;;3.40;;
12218;SDS011;6172;42.646;23.344;2024-01-30T00:18:31;7.00;;;3.10;;
12218;SDS011;6172;42.646;23.344;2024-01-30T00:20:59;6.00;;;3.00;;
12218;SDS011;6172;42.646;23.344;2024-01-30T00:23:26;6.13;;;3.40;;
12218;SDS011;6172;42.646;23.344;2024-01-30T00:25:53;5.50;;;3.00;;
12218;SDS011;6172;42.646;23.344;2024-01-30T00:28:22;5.20;;;3.20;;
12218;SDS011;6172;42.646;23.344;2024-01-30T00:30:49;6.93;;;3.50;;
12218;SDS011;6172;42.646;23.344;2024-01-30T00:33:16;8.57;;;3.50;;
12218;SDS011;6172;42.646;23.344;2024-01-30T00:35:43;6.67;;;3.13;;
12218;SDS011;6172;42.646;23.344;2024-01-30T00:38:10;6.70;;;3.40;;
12218;SDS011;6172;42.646;23.344;2024-01-30T00:40:37;6.67;;;3.33;;
12218;SDS011;6172;42.646;23.344;2024-01-30T00:43:05;5.57;;;2.57;;
12218;SDS011;6172;42.646;23.344;2024-01-30T00:45:33;4.83;;;3.03;;
12218;SDS011;6172;42.646;23.344;2024-01-30T00:48:00;5.77;;;2.93;;
12218;SDS011;6172;42.646;23.344;2024-01-30T00:50:27;5.83;;;3.17;;
12218;SDS011;6172;42.646;23.344;2024-01-30T00:52:55;6.73;;;3.10;;
12218;SDS011;6172;42.646;23.344;2024-01-30T00:55:22;5.50;;;3.07;;
12218;SDS011;6172;42.646;23.344;2024-01-30T00:57:49;6.33;;;3.43;;
12218;SDS011;6172;42.646;23.344;2024-01-30T01:00:16;6.50;;;3.20;;
12218;SDS011;6172;42.646;23.344;2024-01-30T01:02:45;6.37;;;3.50;;
12218;SDS011;6172;42.646;23.344;2024-01-30T01:05:12;7.70;;;3.13;;
12218;SDS011;6172;42.646;23.344;2024-01-30T01:07:39;7.00;;;3.60;;
12218;SDS011;6172;42.646;23.344;2024-01-30T01:10:07;8.80;;;3.40;;
12218;SDS011;6172;42.646;23.344;2024-01-30T01:12:36;4.43;;;2.93;;
12218;SDS011;6172;42.646;23.344;2024-01-30T01:15:03;3.77;;;2.60;;
12218;SDS011;6172;42.646;23.344;2024-01-30T01:17:34;4.37;;;3.13;;
12218;SDS011;6172;42.646;23.344;2024-01-30T01:20:03;5.23;;;3.10;;
12218;SDS011;6172;42.646;23.344;2024-01-30T01:22:32;5.47;;;2.67;;
12218;SDS011;6172;42.646;23.344;2024-01-30T01:24:59;4.23;;;2.43;;
12218;SDS011;6172;42.646;23.344;2024-01-30T01:27:27;7.00;;;3.20;;
12218;SDS011;6172;42.646;23.344;2024-01-30T01:29:54;5.97;;;3.40;;
12218;SDS011;6172;42.646;23.344;2024-01-30T01:32:22;4.13;;;2.63;;
12218;SDS011;6172;42.646;23.344;2024-01-30T01:34:49;4.60;;;2.47;;
12218;SDS011;6172;42.646;23.344;2024-01-30T01:37:17;4.70;;;2.77;;
12218;SDS011;6172;42.646;23.344;2024-01-30T01:39:47;7.03;;;2.90;;
12218;SDS011;6172;42.646;23.344;2024-01-30T01:42:15;5.70;;;3.20;;
12218;SDS011;6172;42.646;23.344;2024-01-30T01:44:42;6.57;;;3.23;;
12218;SDS011;6172;42.646;23.344;2024-01-30T01:47:09;4.43;;;3.27;;
12218;SDS011;6172;42.646;23.344;2024-01-30T01:49:37;5.40;;;3.27;;
12218;SDS011;6172;42.646;23.344;2024-01-30T01:52:04;6.80;;;2.97;;
12218;SDS011;6172;42.646;23.344;2024-01-30T01:54:33;9.53;;;3.20;;
12218;SDS011;6172;42.646;23.344;2024-01-30T01:57:03;8.43;;;3.20;;
12218;SDS011;6172;42.646;23.344;2024-01-30T01:59:30;8.40;;;3.97;;
12218;SDS011;6172;42.646;23.344;2024-01-30T02:01:58;8.67;;;3.60;;
12218;SDS011;6172;42.646;23.344;2024-01-30T02:04:26;4.90;;;2.60;;
12218;SDS011;6172;42.646;23.344;2024-01-30T02:06:53;8.47;;;3.23;;
12218;SDS011;6172;42.646;23.344;2024-01-30T02:09:20;6.13;;;3.07;;
12218;SDS011;6172;42.646;23.344;2024-01-30T02:11:49;5.33;;;3.10;;
12218;SDS011;6172;42.646;23.344;2024-01-30T02:14:17;9.37;;;3.40;;
12218;SDS011;6172;42.646;23.344;2024-01-30T02:16:44;4.13;;;2.60;;
12218;SDS011;6172;42.646;23.344;2024-01-30T02:19:11;5.43;;;2.90;;
12218;SDS011;6172;42.646;23.344;2024-01-30T02:21:40;4.50;;;3.00;;
12218;SDS011;6172;42.646;23.344;2024-01-30T02:24:07;8.40;;;3.00;;
12218;SDS011;6172;42.646;23.344;2024-01-30T02:26:33;11.57;;;3.50;;
12218;SDS011;6172;42.646;23.344;2024-01-30T02:28:59;6.00;;;2.93;;
12218;SDS011;6172;42.646;23.344;2024-01-30T02:31:26;5.50;;;3.00;;
12218;SDS011;6172;42.646;23.344;2024-01-30T02:33:53;3.67;;;2.33;;
12218;SDS011;6172;42.646;23.344;2024-01-30T02:36:20;4.67;;;2.43;;
12218;SDS011;6172;42.646;23.344;2024-01-30T02:38:49;8.30;;;2.77;;
12218;SDS011;6172;42.646;23.344;2024-01-30T02:41:16;4.77;;;2.33;;
12218;SDS011;6172;42.646;23.344;2024-01-30T02:43:43;5.97;;;2.70;;
12218;SDS011;6172;42.646;23.344;2024-01-30T02:46:10;3.57;;;2.20;;
12218;SDS011;6172;42.646;23.344;2024-01-30T02:48:37;4.93;;;2.47;;
12218;SDS011;6172;42.646;23.344;2024-01-30T02:51:05;5.57;;;2.50;;
12218;SDS011;6172;42.646;23.344;2024-01-30T02:53:32;6.53;;;2.20;;
12218;SDS011;6172;42.646;23.344;2024-01-30T02:56:01;2.73;;;1.77;;
12218;SDS011;6172;42.646;23.344;2024-01-30T02:58:29;4.33;;;2.40;;
12218;SDS011;6172;42.646;23.344;2024-01-30T03:00:56;4.10;;;2.33;;
12218;SDS011;6172;42.646;23.344;2024-01-30T03:03:23;3.30;;;2.00;;
12218;SDS011;6172;42.646;23.344;2024-01-30T03:05:50;2.83;;;1.90;;
12218;SDS011;6172;42.646;23.344;2024-01-30T03:08:17;3.20;;;1.80;;
12218;SDS011;6172;42.646;23.344;2024-01-30T03:10:43;2.63;;;1.67;;
12218;SDS011;6172;42.646;23.344;2024-01-30T03:13:13;4.73;;;1.87;;
12218;SDS011;6172;42.646;23.344;2024-01-30T03:15:40;5.30;;;2.40;;
12218;SDS011;6172;42.646;23.344;2024-01-30T03:18:07;4.20;;;2.40;;
12218;SDS011;6172;42.646;23.344;2024-01-30T03:20:36;4.73;;;2.63;;
12218;SDS011;6172;42.646;23.344;2024-01-30T03:23:03;3.67;;;1.90;;
12218;SDS011;6172;42.646;23.344;2024-01-30T03:25:30;2.30;;;1.73;;
12218;SDS011;6172;42.646;23.344;2024-01-30T03:27:58;2.90;;;1.80;;
12218;SDS011;6172;42.646;23.344;2024-01-30T03:30:26;3.97;;;1.70;;
12218;SDS011;6172;42.646;23.344;2024-01-30T03:32:54;3.43;;;1.90;;
12218;SDS011;6172;42.646;23.344;2024-01-30T03:35:21;2.83;;;1.37;;
12218;SDS011;6172;42.646;23.344;2024-01-30T03:37:48;2.33;;;1.40;;
12218;SDS011;6172;42.646;23.344;2024-01-30T03:40:15;2.30;;;1.17;;
12218;SDS011;6172;42.646;23.344;2024-01-30T03:42:42;6.43;;;2.00;;
12218;SDS011;6172;42.646;23.344;2024-01-30T03:45:10;3.03;;;1.80;;
12218;SDS011;6172;42.646;23.344;2024-01-30T03:47:39;2.23;;;1.27;;
12218;SDS011;6172;42.646;23.344;2024-01-30T03:50:06;2.47;;;1.50;;
12218;SDS011;6172;42.646;23.344;2024-01-30T03:52:34;2.87;;;1.40;;
12218;SDS011;6172;42.646;23.344;2024-01-30T03:55:01;3.20;;;1.70;;
12218;SDS011;6172;42.646;23.344;2024-01-30T03:57:28;3.77;;;1.90;;
12218;SDS011;6172;42.646;23.344;2024-01-30T03:59:55;2.57;;;1.60;;
12218;SDS011;6172;42.646;23.344;2024-01-30T04:02:22;3.03;;;1.60;;
12218;SDS011;6172;42.646;23.344;2024-01-30T04:04:51;1.90;;;1.47;;
12218;SDS011;6172;42.646;23.344;2024-01-30T04:07:18;5.27;;;1.67;;
12218;SDS011;6172;42.646;23.344;2024-01-30T04:09:46;3.43;;;1.50;;
12218;SDS011;6172;42.646;23.344;2024-01-30T04:12:12;2.30;;;1.40;;
12218;SDS011;6172;42.646;23.344;2024-01-30T04:14:46;2.27;;;1.33;;
12218;SDS011;6172;42.646;23.344;2024-01-30T04:17:13;4.03;;;1.33;;
12218;SDS011;6172;42.646;23.344;2024-01-30T04:19:40;2.17;;;1.30;;
12218;SDS011;6172;42.646;23.344;2024-01-30T04:25:19;2.23;;;1.23;;
12218;SDS011;6172;42.646;23.344;2024-01-30T04:27:46;2.80;;;1.37;;
12218;SDS011;6172;42.646;23.344;2024-01-30T04:30:13;3.43;;;1.37;;
12218;SDS011;6172;42.646;23.344;2024-01-30T04:32:42;2.10;;;1.17;;
12218;SDS011;6172;42.646;23.344;2024-01-30T04:35:11;2.60;;;1.40;;
12218;SDS011;6172;42.646;23.344;2024-01-30T04:37:38;6.10;;;2.10;;
12218;SDS011;6172;42.646;23.344;2024-01-30T04:40:05;2.63;;;1.40;;
12218;SDS011;6172;42.646;23.344;2024-01-30T04:42:36;2.00;;;1.20;;
12218;SDS011;6172;42.646;23.344;2024-01-30T04:45:03;4.87;;;1.40;;
12218;SDS011;6172;42.646;23.344;2024-01-30T04:47:32;2.87;;;1.40;;
12218;SDS011;6172;42.646;23.344;2024-01-30T04:49:59;3.40;;;1.87;;
12218;SDS011;6172;42.646;23.344;2024-01-30T04:52:26;3.13;;;1.63;;
12218;SDS011;6172;42.646;23.344;2024-01-30T04:54:53;3.17;;;1.80;;
12218;SDS011;6172;42.646;23.344;2024-01-30T04:57:20;5.93;;;1.60;;
12218;SDS011;6172;42.646;23.344;2024-01-30T04:59:49;3.23;;;1.80;;
12218;SDS011;6172;42.646;23.344;2024-01-30T05:02:16;4.53;;;1.90;;
12218;SDS011;6172;42.646;23.344;2024-01-30T05:04:43;6.80;;;1.93;;
12218;SDS011;6172;42.646;23.344;2024-01-30T05:07:11;7.03;;;2.77;;
12218;SDS011;6172;42.646;23.344;2024-01-30T05:09:38;4.43;;;2.13;;
12218;SDS011;6172;42.646;23.344;2024-01-30T05:12:05;5.40;;;2.47;;
12218;SDS011;6172;42.646;23.344;2024-01-30T05:14:33;3.63;;;2.20;;
12218;SDS011;6172;42.646;23.344;2024-01-30T05:17:02;9.30;;;2.13;;
12218;SDS011;6172;42.646;23.344;2024-01-30T05:19:29;6.57;;;2.87;;
12218;SDS011;6172;42.646;23.344;2024-01-30T05:21:56;5.43;;;2.60;;
12218;SDS011;6172;42.646;23.344;2024-01-30T05:24:23;6.83;;;2.47;;
12218;SDS011;6172;42.646;23.344;2024-01-30T05:26:49;5.57;;;2.57;;
12218;SDS011;6172;42.646;23.344;2024-01-30T05:29:18;7.23;;;2.40;;
12218;SDS011;6172;42.646;23.344;2024-01-30T05:31:45;4.17;;;2.00;;
12218;SDS011;6172;42.646;23.344;2024-01-30T05:34:14;5.80;;;2.40;;
12218;SDS011;6172;42.646;23.344;2024-01-30T05:36:41;6.57;;;2.27;;
12218;SDS011;6172;42.646;23.344;2024-01-30T05:39:08;9.80;;;2.73;;
12218;SDS011;6172;42.646;23.344;2024-01-30T05:41:35;7.63;;;2.53;;
12218;SDS011;6172;42.646;23.344;2024-01-30T05:44:02;6.80;;;2.57;;
12218;SDS011;6172;42.646;23.344;2024-01-30T05:46:30;4.70;;;2.97;;
12218;SDS011;6172;42.646;23.344;2024-01-30T05:48:57;3.77;;;2.27;;
12218;SDS011;6172;42.646;23.344;2024-01-30T05:51:25;11.83;;;3.03;;
12218;SDS011;6172;42.646;23.344;2024-01-30T05:53:53;19.03;;;3.20;;
12218;SDS011;6172;42.646;23.344;2024-01-30T05:56:20;14.97;;;3.07;;
12218;SDS011;6172;42.646;23.344;2024-01-30T05:58:47;15.80;;;3.17;;
12218;SDS011;6172;42.646;23.344;2024-01-30T06:01:15;4.80;;;2.03;;
12218;SDS011;6172;42.646;23.344;2024-01-30T06:03:43;5.83;;;2.43;;
12218;SDS011;6172;42.646;23.344;2024-01-30T06:06:10;18.73;;;5.70;;
12218;SDS011;6172;42.646;23.344;2024-01-30T06:08:38;10.47;;;5.10;;
12218;SDS011;6172;42.646;23.344;2024-01-30T06:11:05;11.77;;;5.30;;
12218;SDS011;6172;42.646;23.344;2024-01-30T06:13:32;13.43;;;6.03;;
12218;SDS011;6172;42.646;23.344;2024-01-30T06:15:59;13.13;;;5.33;;
12218;SDS011;6172;42.646;23.344;2024-01-30T06:18:26;7.97;;;4.43;;
12218;SDS011;6172;42.646;23.344;2024-01-30T06:20:55;7.77;;;4.00;;
12218;SDS011;6172;42.646;23.344;2024-01-30T06:23:22;7.43;;;4.07;;
12218;SDS011;6172;42.646;23.344;2024-01-30T06:25:51;9.57;;;4.17;;
12218;SDS011;6172;42.646;23.344;2024-01-30T06:28:18;7.17;;;3.33;;
12218;SDS011;6172;42.646;23.344;2024-01-30T06:30:45;7.10;;;3.63;;
12218;SDS011;6172;42.646;23.344;2024-01-30T06:33:12;9.60;;;3.10;;
12218;SDS011;6172;42.646;23.344;2024-01-30T06:35:40;8.43;;;2.83;;
12218;SDS011;6172;42.646;23.344;2024-01-30T06:38:07;6.33;;;3.10;;
12218;SDS011;6172;42.646;23.344;2024-01-30T06:40:35;6.73;;;3.30;;
12218;SDS011;6172;42.646;23.344;2024-01-30T06:43:04;11.27;;;2.93;;
12218;SDS011;6172;42.646;23.344;2024-01-30T06:45:32;8.93;;;2.87;;
12218;SDS011;6172;42.646;23.344;2024-01-30T06:48:00;7.90;;;3.33;;
12218;SDS011;6172;42.646;23.344;2024-01-30T06:50:27;5.90;;;2.70;;
12218;SDS011;6172;42.646;23.344;2024-01-30T06:52:54;4.27;;;2.13;;
12218;SDS011;6172;42.646;23.344;2024-01-30T06:55:21;9.30;;;2.80;;
12218;SDS011;6172;42.646;23.344;2024-01-30T06:57:47;4.67;;;2.10;;
12218;SDS011;6172;42.646;23.344;2024-01-30T07:00:17;3.27;;;1.93;;
12218;SDS011;6172;42.646;23.344;2024-01-30T07:02:45;2.77;;;1.47;;
12218;SDS011;6172;42.646;23.344;2024-01-30T07:05:12;10.00;;;1.73;;
12218;SDS011;6172;42.646;23.344;2024-01-30T07:07:40;6.43;;;1.80;;
12218;SDS011;6172;42.646;23.344;2024-01-30T07:10:08;2.87;;;1.70;;
12218;SDS011;6172;42.646;23.344;2024-01-30T07:12:35;2.60;;;1.20;;
12218;SDS011;6172;42.646;23.344;2024-01-30T07:15:03;4.87;;;1.50;;
12218;SDS011;6172;42.646;23.344;2024-01-30T07:17:35;1.97;;;0.77;;
12218;SDS011;6172;42.646;23.344;2024-01-30T07:20:02;1.23;;;1.00;;
12218;SDS011;6172;42.646;23.344;2024-01-30T07:22:31;2.43;;;0.87;;
12218;SDS011;6172;42.646;23.344;2024-01-30T07:24:58;3.13;;;1.17;;
12218;SDS011;6172;42.646;23.344;2024-01-30T07:27:26;4.80;;;1.20;;
12218;SDS011;6172;42.646;23.344;2024-01-30T07:29:53;1.97;;;0.90;;
12218;SDS011;6172;42.646;23.344;2024-01-30T07:32:20;5.20;;;1.23;;
12218;SDS011;6172;42.646;23.344;2024-01-30T07:34:49;1.50;;;1.07;;
12218;SDS011;6172;42.646;23.344;2024-01-30T07:37:16;2.00;;;0.93;;
12218;SDS011;6172;42.646;23.344;2024-01-30T07:39:43;2.27;;;1.23;;
12218;SDS011;6172;42.646;23.344;2024-01-30T07:42:10;1.47;;;0.83;;
12218;SDS011;6172;42.646;23.344;2024-01-30T07:44:38;1.87;;;1.03;;
12218;SDS011;6172;42.646;23.344;2024-01-30T07:47:05;3.17;;;0.90;;
12218;SDS011;6172;42.646;23.344;2024-01-30T07:49:32;1.27;;;0.57;;
12218;SDS011;6172;42.646;23.344;2024-01-30T07:52:01;5.10;;;1.10;;
12218;SDS011;6172;42.646;23.344;2024-01-30T07:54:32;2.17;;;1.10;;
12218;SDS011;6172;42.646;23.344;2024-01-30T07:57:00;1.40;;;1.30;;
12218;SDS011;6172;42.646;23.344;2024-01-30T07:59:27;5.63;;;1.20;;
12218;SDS011;6172;42.646;23.344;2024-01-30T08:01:54;2.83;;;1.40;;
12218;SDS011;6172;42.646;23.344;2024-01-30T08:04:21;3.73;;;1.03;;
12218;SDS011;6172;42.646;23.344;2024-01-30T08:06:48;1.73;;;1.10;;
12218;SDS011;6172;42.646;23.344;2024-01-30T08:09:17;5.23;;;1.37;;
12218;SDS011;6172;42.646;23.344;2024-01-30T08:11:44;4.30;;;1.67;;
12218;SDS011;6172;42.646;23.344;2024-01-30T08:14:12;2.30;;;1.00;;
12218;SDS011;6172;42.646;23.344;2024-01-30T08:19:23;1.37;;;1.10;;
12218;SDS011;6172;42.646;23.344;2024-01-30T08:21:50;2.27;;;1.03;;
12218;SDS011;6172;42.646;23.344;2024-01-30T08:24:19;1.97;;;1.30;;
12218;SDS011;6172;42.646;23.344;2024-01-30T08:26:46;3.90;;;1.20;;
12218;SDS011;6172;42.646;23.344;2024-01-30T08:29:13;1.87;;;1.30;;
12218;SDS011;6172;42.646;23.344;2024-01-30T08:31:40;2.30;;;1.60;;
12218;SDS011;6172;42.646;23.344;2024-01-30T08:34:07;6.00;;;1.70;;
12218;SDS011;6172;42.646;23.344;2024-01-30T08:36:34;3.63;;;1.63;;
12218;SDS011;6172;42.646;23.344;2024-01-30T08:39:01;2.60;;;1.67;;
12218;SDS011;6172;42.646;23.344;2024-01-30T08:41:32;3.00;;;1.50;;
12218;SDS011;6172;42.646;23.344;2024-01-30T08:44:01;2.30;;;1.30;;
12218;SDS011;6172;42.646;23.344;2024-01-30T08:46:29;2.70;;;1.57;;
12218;SDS011;6172;42.646;23.344;2024-01-30T08:48:57;2.30;;;1.40;;
12218;SDS011;6172;42.646;23.344;2024-01-30T08:51:25;2.27;;;1.17;;
12218;SDS011;6172;42.646;23.344;2024-01-30T08:53:51;3.87;;;1.80;;
12218;SDS011;6172;42.646;23.344;2024-01-30T08:56:19;4.40;;;1.87;;
12218;SDS011;6172;42.646;23.344;2024-01-30T08:58:48;3.30;;;2.30;;
12218;SDS011;6172;42.646;23.344;2024-01-30T09:01:15;4.07;;;2.03;;
12218;SDS011;6172;42.646;23.344;2024-01-30T09:03:42;2.47;;;1.57;;
12218;SDS011;6172;42.646;23.344;2024-01-30T09:06:12;9.43;;;2.37;;
12218;SDS011;6172;42.646;23.344;2024-01-30T09:08:39;3.17;;;1.83;;
12218;SDS011;6172;42.646;23.344;2024-01-30T09:11:08;6.57;;;2.47;;
12218;SDS011;6172;42.646;23.344;2024-01-30T09:13:35;4.77;;;2.07;;
12218;SDS011;6172;42.646;23.344;2024-01-30T09:16:04;3.20;;;2.20;;
12218;SDS011;6172;42.646;23.344;2024-01-30T09:18:32;2.73;;;1.60;;
12218;SDS011;6172;42.646;23.344;2024-01-30T09:20:59;3.77;;;1.93;;
12218;SDS011;6172;42.646;23.344;2024-01-30T09:23:27;2.70;;;1.90;;
12218;SDS011;6172;42.646;23.344;2024-01-30T09:25:54;3.30;;;1.80;;
12218;SDS011;6172;42.646;23.344;2024-01-30T09:28:22;5.37;;;2.70;;
12218;SDS011;6172;42.646;23.344;2024-01-30T09:30:49;3.07;;;2.53;;
12218;SDS011;6172;42.646;23.344;2024-01-30T09:33:17;3.50;;;2.20;;
12218;SDS011;6172;42.646;23.344;2024-01-30T09:35:45;5.03;;;2.60;;
12218;SDS011;6172;42.646;23.344;2024-01-30T09:38:12;5.67;;;2.90;;
12218;SDS011;6172;42.646;23.344;2024-01-30T09:40:39;5.67;;;2.40;;
12218;SDS011;6172;42.646;23.344;2024-01-30T09:43:08;3.80;;;2.20;;
12218;SDS011;6172;42.646;23.344;2024-01-30T09:45:43;4.43;;;1.97;;
12218;SDS011;6172;42.646;23.344;2024-01-30T09:48:13;5.67;;;2.13;;
12218;SDS011;6172;42.646;23.344;2024-01-30T09:50:43;6.30;;;2.90;;
12218;SDS011;6172;42.646;23.344;2024-01-30T09:53:10;4.37;;;2.37;;
12218;SDS011;6172;42.646;23.344;2024-01-30T09:55:39;5.13;;;2.43;;
12218;SDS011;6172;42.646;23.344;2024-01-30T09:58:10;7.07;;;2.40;;
12218;SDS011;6172;42.646;23.344;2024-01-30T10:00:38;4.37;;;2.17;;
12218;SDS011;6172;42.646;23.344;2024-01-30T10:03:06;7.70;;;2.50;;
12218;SDS011;6172;42.646;23.344;2024-01-30T10:05:33;4.67;;;2.27;;
12218;SDS011;6172;42.646;23.344;2024-01-30T10:08:07;3.27;;;1.97;;
12218;SDS011;6172;42.646;23.344;2024-01-30T10:10:34;4.63;;;2.10;;
12218;SDS011;6172;42.646;23.344;2024-01-30T10:13:01;3.43;;;2.03;;
12218;SDS011;6172;42.646;23.344;2024-01-30T10:15:29;4.23;;;2.70;;
12218;SDS011;6172;42.646;23.344;2024-01-30T10:17:56;3.87;;;1.93;;
12218;SDS011;6172;42.646;23.344;2024-01-30T10:20:24;6.73;;;2.73;;
12218;SDS011;6172;42.646;23.344;2024-01-30T10:22:51;3.80;;;2.37;;
12218;SDS011;6172;42.646;23.344;2024-01-30T10:25:20;3.33;;;2.30;;
12218;SDS011;6172;42.646;23.344;2024-01-30T10:27:52;4.90;;;2.60;;
12218;SDS011;6172;42.646;23.344;2024-01-30T10:30:19;4.43;;;1.90;;
12218;SDS011;6172;42.646;23.344;2024-01-30T10:32:46;4.27;;;2.40;;
12218;SDS011;6172;42.646;23.344;2024-01-30T10:35:15;3.10;;;1.70;;
12218;SDS011;6172;42.646;23.344;2024-01-30T10:37:43;5.50;;;2.17;;
12218;SDS011;6172;42.646;23.344;2024-01-30T10:40:12;5.30;;;3.27;;
12218;SDS011;6172;42.646;23.344;2024-01-30T10:42:43;7.00;;;1.80;;
12218;SDS011;6172;42.646;23.344;2024-01-30T10:45:11;4.53;;;2.03;;
12218;SDS011;6172;42.646;23.344;2024-01-30T10:47:40;4.60;;;2.10;;
12218;SDS011;6172;42.646;23.344;2024-01-30T10:50:14;4.60;;;1.83;;
12218;SDS011;6172;42.646;23.344;2024-01-30T10:52:41;3.77;;;1.80;;
12218;SDS011;6172;42.646;23.344;2024-01-30T10:55:09;5.40;;;1.77;;
12218;SDS011;6172;42.646;23.344;2024-01-30T10:57:37;4.90;;;1.87;;
12218;SDS011;6172;42.646;23.344;2024-01-30T11:00:07;3.27;;;1.80;;
12218;SDS011;6172;42.646;23.344;2024-01-30T11:02:36;9.23;;;2.17;;
12218;SDS011;6172;42.646;23.344;2024-01-30T11:05:05;5.07;;;1.80;;
12218;SDS011;6172;42.646;23.344;2024-01-30T11:07:33;3.13;;;1.60;;
12218;SDS011;6172;42.646;23.344;2024-01-30T11:10:01;5.13;;;2.07;;
12218;SDS011;6172;42.646;23.344;2024-01-30T11:12:29;4.00;;;1.63;;
12218;SDS011;6172;42.646;23.344;2024-01-30T11:15:16;4.57;;;2.23;;
12218;SDS011;6172;42.646;23.344;2024-01-30T11:17:44;4.03;;;1.80;;
12218;SDS011;6172;42.646;23.344;2024-01-30T11:20:14;3.57;;;1.57;;
12218;SDS011;6172;42.646;23.344;2024-01-30T11:22:44;1.67;;;1.40;;
12218;SDS011;6172;42.646;23.344;2024-01-30T11:25:12;2.77;;;1.40;;
12218;SDS011;6172;42.646;23.344;2024-01-30T11:27:41;5.20;;;2.70;;
12218;SDS011;6172;42.646;23.344;2024-01-30T11:30:20;6.43;;;1.53;;
12218;SDS011;6172;42.646;23.344;2024-01-30T11:32:57;5.17;;;1.70;;
12218;SDS011;6172;42.646;23.344;2024-01-30T11:35:25;5.37;;;1.87;;
12218;SDS011;6172;42.646;23.344;2024-01-30T11:37:53;6.43;;;2.00;;
12218;SDS011;6172;42.646;23.344;2024-01-30T11:40:21;2.03;;;1.50;;
12218;SDS011;6172;42.646;23.344;2024-01-30T11:42:48;4.23;;;1.87;;
12218;SDS011;6172;42.646;23.344;2024-01-30T11:45:18;3.83;;;1.60;;
12218;SDS011;6172;42.646;23.344;2024-01-30T11:47:46;4.43;;;2.00;;
12218;SDS011;6172;42.646;23.344;2024-01-30T11:50:13;3.53;;;1.83;;
12218;SDS011;6172;42.646;23.344;2024-01-30T11:52:42;6.80;;;1.97;;
12218;SDS011;6172;42.646;23.344;2024-01-30T11:55:09;3.10;;;1.43;;
12218;SDS011;6172;42.646;23.344;2024-01-30T11:57:37;2.57;;;1.30;;
12218;SDS011;6172;42.646;23.344;2024-01-30T12:00:04;3.33;;;1.77;;
12218;SDS011;6172;42.646;23.344;2024-01-30T12:02:36;4.63;;;1.47;;
12218;SDS011;6172;42.646;23.344;2024-01-30T12:05:06;5.30;;;1.87;;
12218;SDS011;6172;42.646;23.344;2024-01-30T12:07:34;6.03;;;2.13;;
12218;SDS011;6172;42.646;23.344;2024-01-30T12:10:03;4.10;;;1.80;;
12218;SDS011;6172;42.646;23.344;2024-01-30T12:12:32;6.07;;;1.93;;
12218;SDS011;6172;42.646;23.344;2024-01-30T12:15:00;4.33;;;1.87;;
12218;SDS011;6172;42.646;23.344;2024-01-30T12:17:28;1.30;;;1.20;;
12218;SDS011;6172;42.646;23.344;2024-01-30T12:20:06;4.07;;;1.43;;
12218;SDS011;6172;42.646;23.344;2024-01-30T12:22:38;2.90;;;1.73;;
12218;SDS011;6172;42.646;23.344;2024-01-30T12:25:07;5.03;;;2.00;;
12218;SDS011;6172;42.646;23.344;2024-01-30T12:27:35;3.13;;;1.83;;
12218;SDS011;6172;42.646;23.344;2024-01-30T12:30:05;3.20;;;1.70;;
12218;SDS011;6172;42.646;23.344;2024-01-30T12:32:34;4.47;;;1.83;;
12218;SDS011;6172;42.646;23.344;2024-01-30T12:35:02;3.93;;;2.47;;
12218;SDS011;6172;42.646;23.344;2024-01-30T12:37:31;9.60;;;2.13;;
12218;SDS011;6172;42.646;23.344;2024-01-30T12:39:58;5.17;;;2.33;;
12218;SDS011;6172;42.646;23.344;2024-01-30T12:42:26;4.63;;;1.70;;
12218;SDS011;6172;42.646;23.344;2024-01-30T12:44:54;4.37;;;2.40;;
12218;SDS011;6172;42.646;23.344;2024-01-30T12:47:23;7.20;;;2.80;;
12218;SDS011;6172;42.646;23.344;2024-01-30T12:49:50;5.27;;;2.03;;
12218;SDS011;6172;42.646;23.344;2024-01-30T12:52:19;5.87;;;2.60;;
12218;SDS011;6172;42.646;23.344;2024-01-30T12:54:48;2.70;;;1.87;;
12218;SDS011;6172;42.646;23.344;2024-01-30T12:57:15;2.87;;;1.87;;
12218;SDS011;6172;42.646;23.344;2024-01-30T12:59:42;6.00;;;2.13;;
12218;SDS011;6172;42.646;23.344;2024-01-30T13:02:10;5.23;;;2.10;;
12218;SDS011;6172;42.646;23.344;2024-01-30T13:04:38;4.00;;;1.80;;
12218;SDS011;6172;42.646;23.344;2024-01-30T13:07:06;3.53;;;1.77;;
12218;SDS011;6172;42.646;23.344;2024-01-30T13:09:33;2.20;;;1.60;;
12218;SDS011;6172;42.646;23.344;2024-01-30T13:12:02;4.70;;;2.10;;
12218;SDS011;6172;42.646;23.344;2024-01-30T13:14:29;4.27;;;1.53;;
12218;SDS011;6172;42.646;23.344;2024-01-30T13:16:56;4.70;;;1.90;;
12218;SDS011;6172;42.646;23.344;2024-01-30T13:19:23;5.50;;;2.10;;
12218;SDS011;6172;42.646;23.344;2024-01-30T13:21:51;3.33;;;2.07;;
12218;SDS011;6172;42.646;23.344;2024-01-30T13:24:18;3.33;;;1.90;;
12218;SDS011;6172;42.646;23.344;2024-01-30T13:26:46;3.57;;;2.40;;
12218;SDS011;6172;42.646;23.344;2024-01-30T13:29:15;5.67;;;1.80;;
12218;SDS011;6172;42.646;23.344;2024-01-30T13:31:42;5.07;;;2.13;;
12218;SDS011;6172;42.646;23.344;2024-01-30T13:34:11;6.37;;;2.40;;
12218;SDS011;6172;42.646;23.344;2024-01-30T13:36:41;3.47;;;1.93;;
12218;SDS011;6172;42.646;23.344;2024-01-30T13:39:08;7.93;;;2.47;;
12218;SDS011;6172;42.646;23.344;2024-01-30T13:41:37;4.03;;;2.20;;
12218;SDS011;6172;42.646;23.344;2024-01-30T13:44:05;3.37;;;2.00;;
12218;SDS011;6172;42.646;23.344;2024-01-30T13:46:34;5.53;;;2.13;;
12218;SDS011;6172;42.646;23.344;2024-01-30T13:49:01;4.40;;;2.73;;
12218;SDS011;6172;42.646;23.344;2024-01-30T13:51:28;4.87;;;2.50;;
12218;SDS011;6172;42.646;23.344;2024-01-30T13:53:55;8.10;;;2.43;;
12218;SDS011;6172;42.646;23.344;2024-01-30T13:56:22;4.40;;;2.10;;
12218;SDS011;6172;42.646;23.344;2024-01-30T13:58:50;5.43;;;2.97;;
12218;SDS011;6172;42.646;23.344;2024-01-30T14:01:17;6.50;;;2.40;;
12218;SDS011;6172;42.646;23.344;2024-01-30T14:03:45;6.50;;;3.10;;
12218;SDS011;6172;42.646;23.344;2024-01-30T14:06:12;6.30;;;2.40;;
12218;SDS011;6172;42.646;23.344;2024-01-30T14:08:40;5.23;;;2.23;;
12218;SDS011;6172;42.646;23.344;2024-01-30T14:11:07;4.87;;;2.33;;
12218;SDS011;6172;42.646;23.344;2024-01-30T14:13:34;6.87;;;3.27;;
12218;SDS011;6172;42.646;23.344;2024-01-30T14:16:01;4.03;;;2.87;;
12218;SDS011;6172;42.646;23.344;2024-01-30T14:18:29;8.10;;;2.80;;
12218;SDS011;6172;42.646;23.344;2024-01-30T14:20:57;4.90;;;2.40;;
12218;SDS011;6172;42.646;23.344;2024-01-30T14:23:24;4.60;;;2.60;;
12218;SDS011;6172;42.646;23.344;2024-01-30T14:25:51;9.20;;;3.13;;
12218;SDS011;6172;42.646;23.344;2024-01-30T14:28:18;10.23;;;3.43;;
12218;SDS011;6172;42.646;23.344;2024-01-30T14:30:45;11.63;;;2.57;;
12218;SDS011;6172;42.646;23.344;2024-01-30T14:33:13;5.67;;;2.43;;
12218;SDS011;6172;42.646;23.344;2024-01-30T14:35:41;3.47;;;2.40;;
12218;SDS011;6172;42.646;23.344;2024-01-30T14:38:10;5.13;;;2.70;;
12218;SDS011;6172;42.646;23.344;2024-01-30T14:40:38;5.03;;;2.43;;
12218;SDS011;6172;42.646;23.344;2024-01-30T14:43:05;6.83;;;2.70;;
12218;SDS011;6172;42.646;23.344;2024-01-30T14:45:33;3.50;;;2.40;;
12218;SDS011;6172;42.646;23.344;2024-01-30T14:48:01;6.07;;;2.50;;
12218;SDS011;6172;42.646;23.344;2024-01-30T14:50:33;5.83;;;3.17;;
12218;SDS011;6172;42.646;23.344;2024-01-30T14:53:03;5.07;;;3.17;;
12218;SDS011;6172;42.646;23.344;2024-01-30T14:55:32;16.00;;;3.53;;
12218;SDS011;6172;42.646;23.344;2024-01-30T14:57:59;9.57;;;3.33;;